sensor_id;sensor_type;location;lat;lon;timestamp;pressure;altitude;pressure_sealevel;temperature
15626;BMP180;7912;51.376;6.126;2023-02-28T00:00:44;102732.00;;;4.10
15626;BMP180;7912;51.376;6.126;2023-02-28T00:03:12;102729.00;;;4.10
15626;BMP180;7912;51.376;6.126;2023-02-28T00:05:39;102734.00;;;4.00
15626;BMP180;7912;51.376;6.126;2023-02-28T00:08:07;102742.00;;;4.00
15626;BMP180;7912;51.376;6.126;2023-02-28T00:10:34;102731.00;;;4.00
15626;BMP180;7912;51.376;6.126;2023-02-28T00:13:05;102733.00;;;4.00
15626;BMP180;7912;51.376;6.126;2023-02-28T00:15:33;102741.00;;;3.90
15626;BMP180;7912;51.376;6.126;2023-02-28T00:18:01;102733.00;;;3.90
15626;BMP180;7912;51.376;6.126;2023-02-28T00:20:30;102738.00;;;3.90
15626;BMP180;7912;51.376;6.126;2023-02-28T00:22:57;102739.00;;;3.90
15626;BMP180;7912;51.376;6.126;2023-02-28T00:25:26;102740.00;;;3.90
15626;BMP180;7912;51.376;6.126;2023-02-28T00:27:54;102735.00;;;3.90
15626;BMP180;7912;51.376;6.126;2023-02-28T00:30:23;102722.00;;;3.90
15626;BMP180;7912;51.376;6.126;2023-02-28T00:32:51;102750.00;;;3.80
15626;BMP180;7912;51.376;6.126;2023-02-28T00:35:18;102743.00;;;3.80
15626;BMP180;7912;51.376;6.126;2023-02-28T00:37:45;102742.00;;;3.80
15626;BMP180;7912;51.376;6.126;2023-02-28T00:40:14;102735.00;;;3.80
15626;BMP180;7912;51.376;6.126;2023-02-28T00:42:41;102731.00;;;3.80
15626;BMP180;7912;51.376;6.126;2023-02-28T00:45:09;102734.00;;;3.80
15626;BMP180;7912;51.376;6.126;2023-02-28T00:47:36;102750.00;;;3.70
15626;BMP180;7912;51.376;6.126;2023-02-28T00:50:05;102749.00;;;3.70
15626;BMP180;7912;51.376;6.126;2023-02-28T00:52:33;102752.00;;;3.70
15626;BMP180;7912;51.376;6.126;2023-02-28T00:55:00;102754.00;;;3.70
15626;BMP180;7912;51.376;6.126;2023-02-28T00:57:27;102749.00;;;3.70
15626;BMP180;7912;51.376;6.126;2023-02-28T00:59:54;102759.00;;;3.70
15626;BMP180;7912;51.376;6.126;2023-02-28T01:02:23;102745.00;;;3.60
15626;BMP180;7912;51.376;6.126;2023-02-28T01:04:50;102759.00;;;3.60
15626;BMP180;7912;51.376;6.126;2023-02-28T01:07:17;102756.00;;;3.60
15626;BMP180;7912;51.376;6.126;2023-02-28T01:09:44;102767.00;;;3.60
15626;BMP180;7912;51.376;6.126;2023-02-28T01:12:12;102759.00;;;3.60
15626;BMP180;7912;51.376;6.126;2023-02-28T01:14:39;102762.00;;;3.50
15626;BMP180;7912;51.376;6.126;2023-02-28T01:17:07;102768.00;;;3.60
15626;BMP180;7912;51.376;6.126;2023-02-28T01:19:34;102768.00;;;3.50
15626;BMP180;7912;51.376;6.126;2023-02-28T01:22:04;102760.00;;;3.50
15626;BMP180;7912;51.376;6.126;2023-02-28T01:24:32;102757.00;;;3.50
15626;BMP180;7912;51.376;6.126;2023-02-28T01:27:00;102739.00;;;3.50
15626;BMP180;7912;51.376;6.126;2023-02-28T01:29:27;102762.00;;;3.50
15626;BMP180;7912;51.376;6.126;2023-02-28T01:31:54;102758.00;;;3.40
15626;BMP180;7912;51.376;6.126;2023-02-28T01:34:22;102756.00;;;3.50
15626;BMP180;7912;51.376;6.126;2023-02-28T01:37:09;102759.00;;;3.40
15626;BMP180;7912;51.376;6.126;2023-02-28T01:39:36;102754.00;;;3.40
15626;BMP180;7912;51.376;6.126;2023-02-28T01:42:04;102739.00;;;3.30
15626;BMP180;7912;51.376;6.126;2023-02-28T01:45:29;102757.00;;;3.30
15626;BMP180;7912;51.376;6.126;2023-02-28T01:48:05;102748.00;;;3.40
15626;BMP180;7912;51.376;6.126;2023-02-28T01:50:43;102738.00;;;3.30
15626;BMP180;7912;51.376;6.126;2023-02-28T01:53:18;102749.00;;;3.40
15626;BMP180;7912;51.376;6.126;2023-02-28T01:55:50;102750.00;;;3.40
15626;BMP180;7912;51.376;6.126;2023-02-28T01:58:20;102725.00;;;3.40
15626;BMP180;7912;51.376;6.126;2023-02-28T02:00:47;102736.00;;;3.40
15626;BMP180;7912;51.376;6.126;2023-02-28T02:03:18;102723.00;;;3.40
15626;BMP180;7912;51.376;6.126;2023-02-28T02:05:47;102716.00;;;3.40
15626;BMP180;7912;51.376;6.126;2023-02-28T02:08:25;102722.00;;;3.30
15626;BMP180;7912;51.376;6.126;2023-02-28T02:10:57;102723.00;;;3.30
15626;BMP180;7912;51.376;6.126;2023-02-28T02:13:53;102725.00;;;3.30
15626;BMP180;7912;51.376;6.126;2023-02-28T02:16:55;102719.00;;;3.30
15626;BMP180;7912;51.376;6.126;2023-02-28T02:25:36;102717.00;;;3.10
15626;BMP180;7912;51.376;6.126;2023-02-28T02:40:38;102713.00;;;2.90
15626;BMP180;7912;51.376;6.126;2023-02-28T02:43:20;102721.00;;;2.90
15626;BMP180;7912;51.376;6.126;2023-02-28T02:46:06;102714.00;;;2.90
15626;BMP180;7912;51.376;6.126;2023-02-28T02:48:56;102722.00;;;2.90
15626;BMP180;7912;51.376;6.126;2023-02-28T02:51:25;102702.00;;;2.90
15626;BMP180;7912;51.376;6.126;2023-02-28T02:54:10;102713.00;;;2.80
15626;BMP180;7912;51.376;6.126;2023-02-28T02:56:41;102715.00;;;2.90
15626;BMP180;7912;51.376;6.126;2023-02-28T02:59:16;102712.00;;;2.80
15626;BMP180;7912;51.376;6.126;2023-02-28T03:01:56;102717.00;;;2.90
15626;BMP180;7912;51.376;6.126;2023-02-28T03:04:29;102720.00;;;2.80
15626;BMP180;7912;51.376;6.126;2023-02-28T03:06:57;102726.00;;;2.80
15626;BMP180;7912;51.376;6.126;2023-02-28T03:09:26;102711.00;;;2.90
15626;BMP180;7912;51.376;6.126;2023-02-28T03:11:56;102731.00;;;2.90
15626;BMP180;7912;51.376;6.126;2023-02-28T03:16:08;102727.00;;;2.90
15626;BMP180;7912;51.376;6.126;2023-02-28T03:18:18;102720.00;;;2.80
15626;BMP180;7912;51.376;6.126;2023-02-28T03:24:10;102722.00;;;2.80
15626;BMP180;7912;51.376;6.126;2023-02-28T03:26:55;102728.00;;;2.70
15626;BMP180;7912;51.376;6.126;2023-02-28T03:29:45;102718.00;;;2.70
15626;BMP180;7912;51.376;6.126;2023-02-28T03:32:29;102723.00;;;2.70
15626;BMP180;7912;51.376;6.126;2023-02-28T03:35:14;102723.00;;;2.60
15626;BMP180;7912;51.376;6.126;2023-02-28T03:38:05;102719.00;;;2.60
15626;BMP180;7912;51.376;6.126;2023-02-28T03:40:39;102717.00;;;2.60
15626;BMP180;7912;51.376;6.126;2023-02-28T03:43:20;102717.00;;;2.50
15626;BMP180;7912;51.376;6.126;2023-02-28T03:45:51;102709.00;;;2.40
15626;BMP180;7912;51.376;6.126;2023-02-28T03:48:48;102717.00;;;2.40
15626;BMP180;7912;51.376;6.126;2023-02-28T03:51:21;102728.00;;;2.30
15626;BMP180;7912;51.376;6.126;2023-02-28T03:54:05;102721.00;;;2.20
15626;BMP180;7912;51.376;6.126;2023-02-28T03:56:54;102725.00;;;2.20
15626;BMP180;7912;51.376;6.126;2023-02-28T03:59:46;102724.00;;;2.20
15626;BMP180;7912;51.376;6.126;2023-02-28T04:02:16;102708.00;;;2.20
15626;BMP180;7912;51.376;6.126;2023-02-28T04:04:43;102707.00;;;2.20
15626;BMP180;7912;51.376;6.126;2023-02-28T04:07:12;102719.00;;;2.10
15626;BMP180;7912;51.376;6.126;2023-02-28T04:09:40;102717.00;;;2.10
15626;BMP180;7912;51.376;6.126;2023-02-28T04:12:08;102716.00;;;2.20
15626;BMP180;7912;51.376;6.126;2023-02-28T04:14:35;102703.00;;;2.10
15626;BMP180;7912;51.376;6.126;2023-02-28T04:17:02;102719.00;;;2.10
15626;BMP180;7912;51.376;6.126;2023-02-28T04:19:29;102719.00;;;2.10
15626;BMP180;7912;51.376;6.126;2023-02-28T04:21:57;102718.00;;;2.10
15626;BMP180;7912;51.376;6.126;2023-02-28T04:24:27;102717.00;;;2.10
15626;BMP180;7912;51.376;6.126;2023-02-28T04:26:57;102723.00;;;2.10
15626;BMP180;7912;51.376;6.126;2023-02-28T04:29:29;102734.00;;;2.00
15626;BMP180;7912;51.376;6.126;2023-02-28T04:31:57;102731.00;;;2.00
15626;BMP180;7912;51.376;6.126;2023-02-28T04:34:30;102736.00;;;2.00
15626;BMP180;7912;51.376;6.126;2023-02-28T04:36:57;102711.00;;;1.90
15626;BMP180;7912;51.376;6.126;2023-02-28T04:39:43;102727.00;;;1.90
15626;BMP180;7912;51.376;6.126;2023-02-28T04:42:11;102725.00;;;1.90
15626;BMP180;7912;51.376;6.126;2023-02-28T04:44:39;102731.00;;;1.80
15626;BMP180;7912;51.376;6.126;2023-02-28T04:47:06;102724.00;;;1.80
15626;BMP180;7912;51.376;6.126;2023-02-28T04:49:33;102737.00;;;1.80
15626;BMP180;7912;51.376;6.126;2023-02-28T04:52:19;102738.00;;;1.70
15626;BMP180;7912;51.376;6.126;2023-02-28T04:54:46;102735.00;;;1.70
15626;BMP180;7912;51.376;6.126;2023-02-28T04:57:13;102725.00;;;1.60
15626;BMP180;7912;51.376;6.126;2023-02-28T04:59:41;102737.00;;;1.60
15626;BMP180;7912;51.376;6.126;2023-02-28T05:02:08;102736.00;;;1.60
15626;BMP180;7912;51.376;6.126;2023-02-28T05:04:36;102720.00;;;1.60
15626;BMP180;7912;51.376;6.126;2023-02-28T05:07:04;102740.00;;;1.60
15626;BMP180;7912;51.376;6.126;2023-02-28T05:09:31;102735.00;;;1.60
15626;BMP180;7912;51.376;6.126;2023-02-28T05:11:59;102731.00;;;1.60
15626;BMP180;7912;51.376;6.126;2023-02-28T05:14:27;102737.00;;;1.50
15626;BMP180;7912;51.376;6.126;2023-02-28T05:17:13;102741.00;;;1.50
15626;BMP180;7912;51.376;6.126;2023-02-28T05:19:40;102744.00;;;1.50
15626;BMP180;7912;51.376;6.126;2023-02-28T05:22:14;102745.00;;;1.40
15626;BMP180;7912;51.376;6.126;2023-02-28T05:24:43;102752.00;;;1.40
15626;BMP180;7912;51.376;6.126;2023-02-28T05:27:11;102735.00;;;1.40
15626;BMP180;7912;51.376;6.126;2023-02-28T05:29:38;102752.00;;;1.30
15626;BMP180;7912;51.376;6.126;2023-02-28T05:32:11;102756.00;;;1.40
15626;BMP180;7912;51.376;6.126;2023-02-28T05:34:39;102735.00;;;1.40
15626;BMP180;7912;51.376;6.126;2023-02-28T05:37:12;102748.00;;;1.30
15626;BMP180;7912;51.376;6.126;2023-02-28T05:39:40;102746.00;;;1.40
15626;BMP180;7912;51.376;6.126;2023-02-28T05:42:07;102757.00;;;1.40
15626;BMP180;7912;51.376;6.126;2023-02-28T05:44:36;102764.00;;;1.40
15626;BMP180;7912;51.376;6.126;2023-02-28T05:47:03;102775.00;;;1.40
15626;BMP180;7912;51.376;6.126;2023-02-28T05:49:31;102774.00;;;1.40
15626;BMP180;7912;51.376;6.126;2023-02-28T05:51:58;102770.00;;;1.40
15626;BMP180;7912;51.376;6.126;2023-02-28T05:54:25;102766.00;;;1.40
15626;BMP180;7912;51.376;6.126;2023-02-28T05:56:53;102765.00;;;1.40
15626;BMP180;7912;51.376;6.126;2023-02-28T05:59:20;102773.00;;;1.40
15626;BMP180;7912;51.376;6.126;2023-02-28T06:01:47;102750.00;;;1.40
15626;BMP180;7912;51.376;6.126;2023-02-28T06:08:00;102754.00;;;1.30
15626;BMP180;7912;51.376;6.126;2023-02-28T06:10:28;102767.00;;;1.40
15626;BMP180;7912;51.376;6.126;2023-02-28T06:12:55;102772.00;;;1.40
15626;BMP180;7912;51.376;6.126;2023-02-28T06:15:22;102753.00;;;1.40
15626;BMP180;7912;51.376;6.126;2023-02-28T06:17:49;102766.00;;;1.40
15626;BMP180;7912;51.376;6.126;2023-02-28T06:20:16;102766.00;;;1.50
15626;BMP180;7912;51.376;6.126;2023-02-28T06:22:44;102765.00;;;1.50
15626;BMP180;7912;51.376;6.126;2023-02-28T06:25:11;102749.00;;;1.50
15626;BMP180;7912;51.376;6.126;2023-02-28T06:27:39;102760.00;;;1.50
15626;BMP180;7912;51.376;6.126;2023-02-28T06:30:07;102774.00;;;1.60
15626;BMP180;7912;51.376;6.126;2023-02-28T06:32:35;102771.00;;;1.60
15626;BMP180;7912;51.376;6.126;2023-02-28T06:35:03;102779.00;;;1.70
15626;BMP180;7912;51.376;6.126;2023-02-28T06:37:32;102785.00;;;1.70
15626;BMP180;7912;51.376;6.126;2023-02-28T06:40:00;102760.00;;;1.70
15626;BMP180;7912;51.376;6.126;2023-02-28T06:42:27;102780.00;;;1.70
15626;BMP180;7912;51.376;6.126;2023-02-28T06:44:56;102781.00;;;1.80
15626;BMP180;7912;51.376;6.126;2023-02-28T06:47:23;102773.00;;;1.70
15626;BMP180;7912;51.376;6.126;2023-02-28T06:49:51;102780.00;;;1.80
15626;BMP180;7912;51.376;6.126;2023-02-28T06:52:18;102779.00;;;1.80
15626;BMP180;7912;51.376;6.126;2023-02-28T06:54:45;102788.00;;;1.80
15626;BMP180;7912;51.376;6.126;2023-02-28T06:57:13;102793.00;;;1.80
15626;BMP180;7912;51.376;6.126;2023-02-28T06:59:40;102770.00;;;1.80
15626;BMP180;7912;51.376;6.126;2023-02-28T07:02:08;102794.00;;;1.80
15626;BMP180;7912;51.376;6.126;2023-02-28T07:04:35;102797.00;;;1.80
15626;BMP180;7912;51.376;6.126;2023-02-28T07:07:03;102795.00;;;1.90
15626;BMP180;7912;51.376;6.126;2023-02-28T07:09:30;102803.00;;;1.90
15626;BMP180;7912;51.376;6.126;2023-02-28T07:11:57;102789.00;;;1.90
15626;BMP180;7912;51.376;6.126;2023-02-28T07:14:25;102799.00;;;2.00
15626;BMP180;7912;51.376;6.126;2023-02-28T07:16:53;102799.00;;;2.00
15626;BMP180;7912;51.376;6.126;2023-02-28T07:19:20;102799.00;;;2.10
15626;BMP180;7912;51.376;6.126;2023-02-28T07:21:48;102805.00;;;2.10
15626;BMP180;7912;51.376;6.126;2023-02-28T07:24:15;102807.00;;;2.20
15626;BMP180;7912;51.376;6.126;2023-02-28T07:26:44;102804.00;;;2.20
15626;BMP180;7912;51.376;6.126;2023-02-28T07:29:12;102810.00;;;2.30
15626;BMP180;7912;51.376;6.126;2023-02-28T07:31:39;102810.00;;;2.30
15626;BMP180;7912;51.376;6.126;2023-02-28T07:34:10;102804.00;;;2.40
15626;BMP180;7912;51.376;6.126;2023-02-28T07:36:37;102801.00;;;2.40
15626;BMP180;7912;51.376;6.126;2023-02-28T07:39:04;102812.00;;;2.50
15626;BMP180;7912;51.376;6.126;2023-02-28T07:41:31;102816.00;;;2.50
15626;BMP180;7912;51.376;6.126;2023-02-28T07:44:01;102817.00;;;2.60
15626;BMP180;7912;51.376;6.126;2023-02-28T07:46:28;102810.00;;;2.70
15626;BMP180;7912;51.376;6.126;2023-02-28T07:49:03;102820.00;;;2.80
15626;BMP180;7912;51.376;6.126;2023-02-28T07:51:31;102818.00;;;2.90
15626;BMP180;7912;51.376;6.126;2023-02-28T07:53:58;102809.00;;;2.90
15626;BMP180;7912;51.376;6.126;2023-02-28T07:56:25;102818.00;;;3.00
15626;BMP180;7912;51.376;6.126;2023-02-28T07:58:53;102832.00;;;3.00
15626;BMP180;7912;51.376;6.126;2023-02-28T08:01:21;102826.00;;;3.10
15626;BMP180;7912;51.376;6.126;2023-02-28T08:03:48;102806.00;;;3.20
15626;BMP180;7912;51.376;6.126;2023-02-28T08:06:22;102822.00;;;3.20
15626;BMP180;7912;51.376;6.126;2023-02-28T08:08:49;102822.00;;;3.30
15626;BMP180;7912;51.376;6.126;2023-02-28T08:11:17;102811.00;;;3.40
15626;BMP180;7912;51.376;6.126;2023-02-28T08:13:45;102821.00;;;3.50
15626;BMP180;7912;51.376;6.126;2023-02-28T08:16:14;102814.00;;;3.50
15626;BMP180;7912;51.376;6.126;2023-02-28T08:18:51;102804.00;;;3.60
15626;BMP180;7912;51.376;6.126;2023-02-28T08:21:20;102812.00;;;3.70
15626;BMP180;7912;51.376;6.126;2023-02-28T08:23:49;102816.00;;;3.80
15626;BMP180;7912;51.376;6.126;2023-02-28T08:26:18;102827.00;;;3.90
15626;BMP180;7912;51.376;6.126;2023-02-28T08:28:46;102820.00;;;3.90
15626;BMP180;7912;51.376;6.126;2023-02-28T08:31:16;102813.00;;;4.00
15626;BMP180;7912;51.376;6.126;2023-02-28T08:33:44;102816.00;;;4.10
15626;BMP180;7912;51.376;6.126;2023-02-28T08:36:16;102800.00;;;4.20
15626;BMP180;7912;51.376;6.126;2023-02-28T08:38:44;102821.00;;;4.20
15626;BMP180;7912;51.376;6.126;2023-02-28T08:41:13;102813.00;;;4.30
15626;BMP180;7912;51.376;6.126;2023-02-28T08:43:41;102813.00;;;4.40
15626;BMP180;7912;51.376;6.126;2023-02-28T08:46:13;102816.00;;;4.50
15626;BMP180;7912;51.376;6.126;2023-02-28T08:48:41;102819.00;;;4.60
15626;BMP180;7912;51.376;6.126;2023-02-28T08:51:15;102821.00;;;4.60
15626;BMP180;7912;51.376;6.126;2023-02-28T08:53:45;102808.00;;;4.80
15626;BMP180;7912;51.376;6.126;2023-02-28T08:56:15;102811.00;;;4.90
15626;BMP180;7912;51.376;6.126;2023-02-28T08:58:44;102800.00;;;5.00
15626;BMP180;7912;51.376;6.126;2023-02-28T09:01:22;102807.00;;;5.10
15626;BMP180;7912;51.376;6.126;2023-02-28T09:03:51;102803.00;;;5.20
15626;BMP180;7912;51.376;6.126;2023-02-28T09:06:21;102800.00;;;5.30
15626;BMP180;7912;51.376;6.126;2023-02-28T09:08:48;102807.00;;;5.30
15626;BMP180;7912;51.376;6.126;2023-02-28T09:11:16;102808.00;;;5.40
15626;BMP180;7912;51.376;6.126;2023-02-28T09:13:46;102810.00;;;5.50
15626;BMP180;7912;51.376;6.126;2023-02-28T09:16:15;102803.00;;;5.60
15626;BMP180;7912;51.376;6.126;2023-02-28T09:18:47;102807.00;;;5.70
15626;BMP180;7912;51.376;6.126;2023-02-28T09:21:17;102794.00;;;5.80
15626;BMP180;7912;51.376;6.126;2023-02-28T09:23:47;102805.00;;;5.80
15626;BMP180;7912;51.376;6.126;2023-02-28T09:26:25;102812.00;;;5.90
15626;BMP180;7912;51.376;6.126;2023-02-28T09:29:04;102811.00;;;5.90
15626;BMP180;7912;51.376;6.126;2023-02-28T09:31:32;102809.00;;;6.10
15626;BMP180;7912;51.376;6.126;2023-02-28T09:33:59;102806.00;;;6.10
15626;BMP180;7912;51.376;6.126;2023-02-28T09:36:27;102790.00;;;6.20
15626;BMP180;7912;51.376;6.126;2023-02-28T09:39:10;102801.00;;;6.30
15626;BMP180;7912;51.376;6.126;2023-02-28T09:41:44;102788.00;;;6.30
15626;BMP180;7912;51.376;6.126;2023-02-28T09:44:42;102790.00;;;6.40
15626;BMP180;7912;51.376;6.126;2023-02-28T09:47:57;102806.00;;;6.40
15626;BMP180;7912;51.376;6.126;2023-02-28T09:50:29;102797.00;;;6.50
15626;BMP180;7912;51.376;6.126;2023-02-28T09:52:57;102788.00;;;6.60
15626;BMP180;7912;51.376;6.126;2023-02-28T09:55:48;102778.00;;;6.70
15626;BMP180;7912;51.376;6.126;2023-02-28T09:58:54;102791.00;;;6.70
15626;BMP180;7912;51.376;6.126;2023-02-28T10:01:51;102772.00;;;6.80
15626;BMP180;7912;51.376;6.126;2023-02-28T10:10:46;102780.00;;;7.30
15626;BMP180;7912;51.376;6.126;2023-02-28T10:16:14;102791.00;;;8.60
15626;BMP180;7912;51.376;6.126;2023-02-28T10:18:59;102783.00;;;8.90
15626;BMP180;7912;51.376;6.126;2023-02-28T10:21:46;102773.00;;;9.10
15626;BMP180;7912;51.376;6.126;2023-02-28T10:27:16;102775.00;;;9.70
15626;BMP180;7912;51.376;6.126;2023-02-28T10:29:50;102775.00;;;9.80
15626;BMP180;7912;51.376;6.126;2023-02-28T10:32:33;102769.00;;;9.90
15626;BMP180;7912;51.376;6.126;2023-02-28T10:35:16;102775.00;;;10.00
15626;BMP180;7912;51.376;6.126;2023-02-28T10:37:51;102767.00;;;10.30
15626;BMP180;7912;51.376;6.126;2023-02-28T10:46:12;102762.00;;;10.80
15626;BMP180;7912;51.376;6.126;2023-02-28T10:49:00;102767.00;;;10.90
15626;BMP180;7912;51.376;6.126;2023-02-28T10:51:37;102763.00;;;10.70
15626;BMP180;7912;51.376;6.126;2023-02-28T10:54:05;102771.00;;;10.60
15626;BMP180;7912;51.376;6.126;2023-02-28T10:56:41;102772.00;;;10.40
15626;BMP180;7912;51.376;6.126;2023-02-28T11:01:47;102765.00;;;10.00
15626;BMP180;7912;51.376;6.126;2023-02-28T11:04:35;102774.00;;;9.60
15626;BMP180;7912;51.376;6.126;2023-02-28T11:07:21;102772.00;;;9.40
15626;BMP180;7912;51.376;6.126;2023-02-28T11:09:55;102762.00;;;9.40
15626;BMP180;7912;51.376;6.126;2023-02-28T11:12:34;102770.00;;;9.30
15626;BMP180;7912;51.376;6.126;2023-02-28T11:15:30;102766.00;;;9.50
15626;BMP180;7912;51.376;6.126;2023-02-28T11:18:21;102758.00;;;10.00
15626;BMP180;7912;51.376;6.126;2023-02-28T11:20:51;102752.00;;;10.60
15626;BMP180;7912;51.376;6.126;2023-02-28T11:23:20;102739.00;;;11.10
15626;BMP180;7912;51.376;6.126;2023-02-28T11:25:52;102744.00;;;11.50
15626;BMP180;7912;51.376;6.126;2023-02-28T11:28:32;102726.00;;;11.90
15626;BMP180;7912;51.376;6.126;2023-02-28T11:33:48;102736.00;;;12.40
15626;BMP180;7912;51.376;6.126;2023-02-28T11:36:44;102727.00;;;12.70
15626;BMP180;7912;51.376;6.126;2023-02-28T11:39:12;102744.00;;;12.90
15626;BMP180;7912;51.376;6.126;2023-02-28T11:47:38;102733.00;;;13.10
15626;BMP180;7912;51.376;6.126;2023-02-28T11:53:47;102743.00;;;13.40
15626;BMP180;7912;51.376;6.126;2023-02-28T11:56:20;102737.00;;;13.50
15626;BMP180;7912;51.376;6.126;2023-02-28T12:05:31;102740.00;;;13.60
15626;BMP180;7912;51.376;6.126;2023-02-28T12:08:25;102731.00;;;13.60
15626;BMP180;7912;51.376;6.126;2023-02-28T12:16:32;102719.00;;;13.40
15626;BMP180;7912;51.376;6.126;2023-02-28T12:28:26;102718.00;;;13.20
15626;BMP180;7912;51.376;6.126;2023-02-28T12:31:18;102700.00;;;13.20
15626;BMP180;7912;51.376;6.126;2023-02-28T12:34:06;102706.00;;;13.30
15626;BMP180;7912;51.376;6.126;2023-02-28T12:36:36;102702.00;;;13.40
15626;BMP180;7912;51.376;6.126;2023-02-28T12:39:14;102697.00;;;13.60
15626;BMP180;7912;51.376;6.126;2023-02-28T12:44:42;102683.00;;;13.90
15626;BMP180;7912;51.376;6.126;2023-02-28T12:47:16;102677.00;;;14.00
15626;BMP180;7912;51.376;6.126;2023-02-28T12:50:03;102688.00;;;14.10
15626;BMP180;7912;51.376;6.126;2023-02-28T12:52:58;102681.00;;;14.10
15626;BMP180;7912;51.376;6.126;2023-02-28T12:55:52;102686.00;;;14.20
15626;BMP180;7912;51.376;6.126;2023-02-28T12:58:36;102671.00;;;14.30
15626;BMP180;7912;51.376;6.126;2023-02-28T13:04:53;102664.00;;;14.40
15626;BMP180;7912;51.376;6.126;2023-02-28T13:08:04;102670.00;;;14.20
15626;BMP180;7912;51.376;6.126;2023-02-28T13:10:49;102659.00;;;14.10
15626;BMP180;7912;51.376;6.126;2023-02-28T13:13:28;102661.00;;;14.20
15626;BMP180;7912;51.376;6.126;2023-02-28T13:16:12;102665.00;;;14.30
15626;BMP180;7912;51.376;6.126;2023-02-28T13:18:43;102661.00;;;14.30
15626;BMP180;7912;51.376;6.126;2023-02-28T13:21:29;102652.00;;;14.30
15626;BMP180;7912;51.376;6.126;2023-02-28T13:24:03;102635.00;;;14.40
15626;BMP180;7912;51.376;6.126;2023-02-28T13:34:41;102626.00;;;15.00
15626;BMP180;7912;51.376;6.126;2023-02-28T13:40:32;102629.00;;;15.00
15626;BMP180;7912;51.376;6.126;2023-02-28T13:43:08;102626.00;;;15.10
15626;BMP180;7912;51.376;6.126;2023-02-28T13:45:36;102622.00;;;15.20
15626;BMP180;7912;51.376;6.126;2023-02-28T13:48:26;102633.00;;;15.30
15626;BMP180;7912;51.376;6.126;2023-02-28T13:50:54;102626.00;;;15.30
15626;BMP180;7912;51.376;6.126;2023-02-28T13:53:52;102629.00;;;15.20
15626;BMP180;7912;51.376;6.126;2023-02-28T13:56:41;102630.00;;;15.10
15626;BMP180;7912;51.376;6.126;2023-02-28T13:59:50;102622.00;;;15.00
15626;BMP180;7912;51.376;6.126;2023-02-28T14:05:39;102618.00;;;14.70
15626;BMP180;7912;51.376;6.126;2023-02-28T14:08:17;102619.00;;;14.70
15626;BMP180;7912;51.376;6.126;2023-02-28T14:10:52;102623.00;;;14.70
15626;BMP180;7912;51.376;6.126;2023-02-28T14:13:46;102628.00;;;14.70
15626;BMP180;7912;51.376;6.126;2023-02-28T14:16:53;102622.00;;;14.70
15626;BMP180;7912;51.376;6.126;2023-02-28T14:19:29;102615.00;;;14.80
15626;BMP180;7912;51.376;6.126;2023-02-28T14:33:59;102615.00;;;14.80
15626;BMP180;7912;51.376;6.126;2023-02-28T14:36:36;102607.00;;;14.80
15626;BMP180;7912;51.376;6.126;2023-02-28T14:41:41;102604.00;;;14.70
15626;BMP180;7912;51.376;6.126;2023-02-28T14:44:24;102612.00;;;14.50
15626;BMP180;7912;51.376;6.126;2023-02-28T14:46:58;102607.00;;;14.50
15626;BMP180;7912;51.376;6.126;2023-02-28T14:49:37;102604.00;;;14.40
15626;BMP180;7912;51.376;6.126;2023-02-28T14:52:26;102604.00;;;14.40
15626;BMP180;7912;51.376;6.126;2023-02-28T14:55:14;102613.00;;;14.30
15626;BMP180;7912;51.376;6.126;2023-02-28T14:57:56;102611.00;;;14.20
15626;BMP180;7912;51.376;6.126;2023-02-28T15:00:28;102605.00;;;14.10
15626;BMP180;7912;51.376;6.126;2023-02-28T15:02:58;102603.00;;;14.10
15626;BMP180;7912;51.376;6.126;2023-02-28T15:05:27;102611.00;;;14.10
15626;BMP180;7912;51.376;6.126;2023-02-28T15:08:14;102611.00;;;14.00
15626;BMP180;7912;51.376;6.126;2023-02-28T15:11:00;102600.00;;;13.90
15626;BMP180;7912;51.376;6.126;2023-02-28T15:13:41;102610.00;;;14.00
15626;BMP180;7912;51.376;6.126;2023-02-28T15:21:40;102593.00;;;13.80
15626;BMP180;7912;51.376;6.126;2023-02-28T15:27:04;102601.00;;;13.70
15626;BMP180;7912;51.376;6.126;2023-02-28T15:29:46;102610.00;;;13.40
15626;BMP180;7912;51.376;6.126;2023-02-28T15:35:46;102608.00;;;12.90
15626;BMP180;7912;51.376;6.126;2023-02-28T15:38:24;102596.00;;;12.80
15626;BMP180;7912;51.376;6.126;2023-02-28T15:40:57;102607.00;;;12.60
15626;BMP180;7912;51.376;6.126;2023-02-28T15:43:38;102600.00;;;12.50
15626;BMP180;7912;51.376;6.126;2023-02-28T15:46:11;102612.00;;;12.50
15626;BMP180;7912;51.376;6.126;2023-02-28T15:49:02;102618.00;;;12.40
15626;BMP180;7912;51.376;6.126;2023-02-28T15:51:37;102615.00;;;12.20
15626;BMP180;7912;51.376;6.126;2023-02-28T15:54:08;102611.00;;;12.00
15626;BMP180;7912;51.376;6.126;2023-02-28T15:56:49;102618.00;;;11.90
15626;BMP180;7912;51.376;6.126;2023-02-28T15:59:26;102617.00;;;11.70
15626;BMP180;7912;51.376;6.126;2023-02-28T16:02:16;102613.00;;;11.50
15626;BMP180;7912;51.376;6.126;2023-02-28T16:04:57;102606.00;;;11.30
15626;BMP180;7912;51.376;6.126;2023-02-28T16:07:26;102621.00;;;11.00
15626;BMP180;7912;51.376;6.126;2023-02-28T16:09:54;102619.00;;;10.70
15626;BMP180;7912;51.376;6.126;2023-02-28T16:12:27;102632.00;;;10.50
15626;BMP180;7912;51.376;6.126;2023-02-28T16:15:00;102631.00;;;10.30
15626;BMP180;7912;51.376;6.126;2023-02-28T16:17:35;102619.00;;;10.10
15626;BMP180;7912;51.376;6.126;2023-02-28T16:20:18;102643.00;;;10.00
15626;BMP180;7912;51.376;6.126;2023-02-28T16:22:45;102629.00;;;9.90
15626;BMP180;7912;51.376;6.126;2023-02-28T16:25:22;102631.00;;;9.70
15626;BMP180;7912;51.376;6.126;2023-02-28T16:27:54;102633.00;;;9.60
15626;BMP180;7912;51.376;6.126;2023-02-28T16:30:40;102642.00;;;9.50
15626;BMP180;7912;51.376;6.126;2023-02-28T16:33:09;102633.00;;;9.40
15626;BMP180;7912;51.376;6.126;2023-02-28T16:35:36;102631.00;;;9.30
15626;BMP180;7912;51.376;6.126;2023-02-28T16:38:03;102625.00;;;9.20
15626;BMP180;7912;51.376;6.126;2023-02-28T16:40:34;102645.00;;;9.10
15626;BMP180;7912;51.376;6.126;2023-02-28T16:43:10;102645.00;;;9.00
15626;BMP180;7912;51.376;6.126;2023-02-28T16:45:40;102655.00;;;8.90
15626;BMP180;7912;51.376;6.126;2023-02-28T16:48:16;102647.00;;;8.90
15626;BMP180;7912;51.376;6.126;2023-02-28T16:54:06;102653.00;;;8.70
15626;BMP180;7912;51.376;6.126;2023-02-28T16:56:34;102656.00;;;8.60
15626;BMP180;7912;51.376;6.126;2023-02-28T16:59:02;102654.00;;;8.50
15626;BMP180;7912;51.376;6.126;2023-02-28T17:01:30;102664.00;;;8.50
15626;BMP180;7912;51.376;6.126;2023-02-28T17:03:58;102665.00;;;8.40
15626;BMP180;7912;51.376;6.126;2023-02-28T17:06:28;102670.00;;;8.40
15626;BMP180;7912;51.376;6.126;2023-02-28T17:08:58;102659.00;;;8.30